Key West International Airport
KEYW : now visible

Airfield :











YOU CAN JOIN US ON...

 
LOGIN :

Register | Disclaimer

   EN    FR    IT 

 









Legend :    VFR   Marginal VFR   IFR   Intensive IFR   Very Intensive IFR
Visi :
Ceiling :
>= 8 km
>= 3000ft
5 to 8 km
1000 to 3000 ft
1500m to 5 km
500 to 1000 ft
800 to 1500m
200 to 500 ft
< 800m
< 200 ft
Symbols :   Thunderstorms  Fog  Heavy snow  Heavy precipitations  Wind > 20 kt






- Airport Elevation : 3 ft
- IATA code : EYW


KEYW - Key West International

CURRENT METAR :
  • 021653Z 15009KT 10SM FEW025 FEW034 32/25 A3006 RMK AO2 SLP178 T03170250

EXPIRED METARs :
  • 021553Z 13009KT 10SM FEW026 SCT039 31/25 A3006 RMK AO2 SLP179 T03110250
  • 021453Z 14008KT 10SM FEW024 FEW034 SCT080 31/25 A3005 RMK AO2 SLP177 T03110250 51013

TAF KEYW
Valid from the 02 at 15:00 until the 03 at 12:00 UTC


021501Z 0215/0312 13011KT P6SM SCT025
KZMA FIR / North America



MET'MAP, your aeronautical weather chart ! - Copyright ORBIFLY December 2007 - Disclaimer

ORBIFLY MET'MAP TEAM :

Programming & Development : Alexandra Zaïnal
Original concept : Baudouin d'Aumeries
Technical & hardware support : Manuel Goepfert
Assistance : Marc-Olivier Méhu




SOURCES & CREDITS :

   NOAA       Earth
Advisory